sensor_id;sensor_type;location;lat;lon;timestamp;P1;durP1;ratioP1;P2;durP2;ratioP2
17369;SDS011;8802;52.402;4.920;2024-03-08T00:01:00;22.85;;;19.13;;
17369;SDS011;8802;52.402;4.920;2024-03-08T00:03:26;20.92;;;18.10;;
17369;SDS011;8802;52.402;4.920;2024-03-08T00:05:54;22.60;;;18.95;;
17369;SDS011;8802;52.402;4.920;2024-03-08T00:08:21;24.25;;;19.38;;
17369;SDS011;8802;52.402;4.920;2024-03-08T00:10:48;26.05;;;19.58;;
17369;SDS011;8802;52.402;4.920;2024-03-08T00:13:15;28.27;;;19.20;;
17369;SDS011;8802;52.402;4.920;2024-03-08T00:15:42;22.45;;;18.65;;
17369;SDS011;8802;52.402;4.920;2024-03-08T00:18:10;22.55;;;18.17;;
17369;SDS011;8802;52.402;4.920;2024-03-08T00:20:37;23.10;;;18.05;;
17369;SDS011;8802;52.402;4.920;2024-03-08T00:23:04;20.80;;;16.85;;
17369;SDS011;8802;52.402;4.920;2024-03-08T00:25:31;23.52;;;18.80;;
17369;SDS011;8802;52.402;4.920;2024-03-08T00:27:59;22.30;;;17.92;;
17369;SDS011;8802;52.402;4.920;2024-03-08T00:30:26;23.95;;;18.20;;
17369;SDS011;8802;52.402;4.920;2024-03-08T00:32:53;23.67;;;18.17;;
17369;SDS011;8802;52.402;4.920;2024-03-08T00:35:21;20.80;;;16.45;;
17369;SDS011;8802;52.402;4.920;2024-03-08T00:37:48;25.35;;;20.42;;
17369;SDS011;8802;52.402;4.920;2024-03-08T00:40:15;22.33;;;17.25;;
17369;SDS011;8802;52.402;4.920;2024-03-08T00:42:42;23.77;;;19.15;;
17369;SDS011;8802;52.402;4.920;2024-03-08T00:45:09;24.02;;;17.88;;
17369;SDS011;8802;52.402;4.920;2024-03-08T00:47:37;22.60;;;17.02;;
17369;SDS011;8802;52.402;4.920;2024-03-08T00:50:04;25.20;;;19.20;;
17369;SDS011;8802;52.402;4.920;2024-03-08T00:52:34;21.38;;;18.55;;
17369;SDS011;8802;52.402;4.920;2024-03-08T00:55:01;23.02;;;18.73;;
17369;SDS011;8802;52.402;4.920;2024-03-08T00:57:28;20.48;;;17.40;;
17369;SDS011;8802;52.402;4.920;2024-03-08T00:59:56;24.17;;;18.63;;
17369;SDS011;8802;52.402;4.920;2024-03-08T01:02:23;21.40;;;18.15;;
17369;SDS011;8802;52.402;4.920;2024-03-08T01:04:50;22.35;;;16.65;;
17369;SDS011;8802;52.402;4.920;2024-03-08T01:07:17;22.42;;;17.58;;
17369;SDS011;8802;52.402;4.920;2024-03-08T01:09:45;21.70;;;17.77;;
17369;SDS011;8802;52.402;4.920;2024-03-08T01:12:12;22.38;;;19.17;;
17369;SDS011;8802;52.402;4.920;2024-03-08T01:14:39;22.42;;;17.85;;
17369;SDS011;8802;52.402;4.920;2024-03-08T01:17:06;21.75;;;18.35;;
17369;SDS011;8802;52.402;4.920;2024-03-08T01:19:34;20.92;;;17.38;;
17369;SDS011;8802;52.402;4.920;2024-03-08T01:22:01;21.05;;;17.55;;
17369;SDS011;8802;52.402;4.920;2024-03-08T01:24:28;20.48;;;17.15;;
17369;SDS011;8802;52.402;4.920;2024-03-08T01:26:57;21.30;;;17.45;;
17369;SDS011;8802;52.402;4.920;2024-03-08T01:29:23;21.10;;;17.92;;
17369;SDS011;8802;52.402;4.920;2024-03-08T01:31:50;20.60;;;16.67;;
17369;SDS011;8802;52.402;4.920;2024-03-08T01:34:18;20.40;;;16.35;;
17369;SDS011;8802;52.402;4.920;2024-03-08T01:36:45;21.60;;;17.73;;
17369;SDS011;8802;52.402;4.920;2024-03-08T01:39:12;21.90;;;18.35;;
17369;SDS011;8802;52.402;4.920;2024-03-08T01:41:39;24.45;;;17.27;;
17369;SDS011;8802;52.402;4.920;2024-03-08T01:44:08;22.25;;;17.38;;
17369;SDS011;8802;52.402;4.920;2024-03-08T01:46:35;22.13;;;18.17;;
17369;SDS011;8802;52.402;4.920;2024-03-08T01:49:02;20.95;;;18.40;;
17369;SDS011;8802;52.402;4.920;2024-03-08T01:51:30;20.52;;;17.23;;
17369;SDS011;8802;52.402;4.920;2024-03-08T01:53:57;22.70;;;18.17;;
17369;SDS011;8802;52.402;4.920;2024-03-08T01:56:26;23.00;;;17.65;;
17369;SDS011;8802;52.402;4.920;2024-03-08T01:58:53;20.73;;;17.40;;
17369;SDS011;8802;52.402;4.920;2024-03-08T02:01:22;22.00;;;17.65;;
17369;SDS011;8802;52.402;4.920;2024-03-08T02:03:49;21.38;;;17.70;;
17369;SDS011;8802;52.402;4.920;2024-03-08T02:06:17;22.58;;;19.15;;
17369;SDS011;8802;52.402;4.920;2024-03-08T02:08:44;22.20;;;17.75;;
17369;SDS011;8802;52.402;4.920;2024-03-08T02:11:11;26.27;;;19.92;;
17369;SDS011;8802;52.402;4.920;2024-03-08T02:13:39;26.95;;;20.05;;
17369;SDS011;8802;52.402;4.920;2024-03-08T02:16:06;20.58;;;16.85;;
17369;SDS011;8802;52.402;4.920;2024-03-08T02:18:34;20.90;;;18.75;;
17369;SDS011;8802;52.402;4.920;2024-03-08T02:21:03;23.27;;;19.98;;
17369;SDS011;8802;52.402;4.920;2024-03-08T02:23:30;21.85;;;19.40;;
17369;SDS011;8802;52.402;4.920;2024-03-08T02:25:58;22.35;;;18.60;;
17369;SDS011;8802;52.402;4.920;2024-03-08T02:28:25;21.17;;;18.42;;
17369;SDS011;8802;52.402;4.920;2024-03-08T02:30:52;23.60;;;18.98;;
17369;SDS011;8802;52.402;4.920;2024-03-08T02:33:20;21.38;;;17.10;;
17369;SDS011;8802;52.402;4.920;2024-03-08T02:35:48;21.30;;;18.88;;
17369;SDS011;8802;52.402;4.920;2024-03-08T02:38:17;21.52;;;18.67;;
17369;SDS011;8802;52.402;4.920;2024-03-08T02:40:46;21.27;;;18.73;;
17369;SDS011;8802;52.402;4.920;2024-03-08T02:43:13;22.85;;;18.90;;
17369;SDS011;8802;52.402;4.920;2024-03-08T02:45:41;21.83;;;18.40;;
17369;SDS011;8802;52.402;4.920;2024-03-08T02:48:09;21.13;;;17.33;;
17369;SDS011;8802;52.402;4.920;2024-03-08T02:50:36;20.45;;;17.05;;
17369;SDS011;8802;52.402;4.920;2024-03-08T02:53:04;20.98;;;17.88;;
17369;SDS011;8802;52.402;4.920;2024-03-08T02:55:34;22.90;;;19.23;;
17369;SDS011;8802;52.402;4.920;2024-03-08T02:58:01;20.90;;;18.55;;
17369;SDS011;8802;52.402;4.920;2024-03-08T03:00:29;23.05;;;20.13;;
17369;SDS011;8802;52.402;4.920;2024-03-08T03:02:57;21.75;;;19.40;;
17369;SDS011;8802;52.402;4.920;2024-03-08T03:05:24;22.38;;;18.92;;
17369;SDS011;8802;52.402;4.920;2024-03-08T03:07:51;21.63;;;19.33;;
17369;SDS011;8802;52.402;4.920;2024-03-08T03:10:18;20.17;;;17.55;;
17369;SDS011;8802;52.402;4.920;2024-03-08T03:12:48;21.33;;;18.92;;
17369;SDS011;8802;52.402;4.920;2024-03-08T03:15:15;22.83;;;18.33;;
17369;SDS011;8802;52.402;4.920;2024-03-08T03:17:45;22.23;;;18.92;;
17369;SDS011;8802;52.402;4.920;2024-03-08T03:20:13;21.77;;;18.58;;
17369;SDS011;8802;52.402;4.920;2024-03-08T03:22:47;21.95;;;17.58;;
17369;SDS011;8802;52.402;4.920;2024-03-08T03:25:17;21.23;;;17.45;;
17369;SDS011;8802;52.402;4.920;2024-03-08T03:27:50;21.67;;;18.88;;
17369;SDS011;8802;52.402;4.920;2024-03-08T03:30:17;21.38;;;19.10;;
17369;SDS011;8802;52.402;4.920;2024-03-08T03:32:47;23.10;;;18.45;;
17369;SDS011;8802;52.402;4.920;2024-03-08T03:35:15;21.90;;;19.50;;
17369;SDS011;8802;52.402;4.920;2024-03-08T03:37:43;23.25;;;19.83;;
17369;SDS011;8802;52.402;4.920;2024-03-08T03:40:16;20.45;;;18.30;;
17369;SDS011;8802;52.402;4.920;2024-03-08T03:42:44;23.42;;;19.40;;
17369;SDS011;8802;52.402;4.920;2024-03-08T03:45:13;22.08;;;19.73;;
17369;SDS011;8802;52.402;4.920;2024-03-08T03:47:45;23.88;;;19.80;;
17369;SDS011;8802;52.402;4.920;2024-03-08T03:50:12;21.00;;;18.80;;
17369;SDS011;8802;52.402;4.920;2024-03-08T03:52:39;23.75;;;20.27;;
17369;SDS011;8802;52.402;4.920;2024-03-08T03:55:07;24.33;;;19.45;;
17369;SDS011;8802;52.402;4.920;2024-03-08T03:57:37;22.98;;;19.92;;
17369;SDS011;8802;52.402;4.920;2024-03-08T04:00:04;22.30;;;19.85;;
17369;SDS011;8802;52.402;4.920;2024-03-08T04:02:38;21.88;;;18.70;;
17369;SDS011;8802;52.402;4.920;2024-03-08T04:05:07;23.20;;;20.60;;
17369;SDS011;8802;52.402;4.920;2024-03-08T04:07:35;24.55;;;19.25;;
17369;SDS011;8802;52.402;4.920;2024-03-08T04:10:03;23.10;;;19.17;;
17369;SDS011;8802;52.402;4.920;2024-03-08T04:12:31;23.02;;;20.45;;
17369;SDS011;8802;52.402;4.920;2024-03-08T04:14:58;25.15;;;20.55;;
17369;SDS011;8802;52.402;4.920;2024-03-08T04:17:25;22.20;;;19.63;;
17369;SDS011;8802;52.402;4.920;2024-03-08T04:19:53;22.85;;;19.85;;
17369;SDS011;8802;52.402;4.920;2024-03-08T04:22:20;23.30;;;19.85;;
17369;SDS011;8802;52.402;4.920;2024-03-08T04:24:47;20.45;;;17.20;;
17369;SDS011;8802;52.402;4.920;2024-03-08T04:27:14;21.95;;;19.23;;
17369;SDS011;8802;52.402;4.920;2024-03-08T04:29:41;21.77;;;19.00;;
17369;SDS011;8802;52.402;4.920;2024-03-08T04:32:09;21.45;;;18.63;;
17369;SDS011;8802;52.402;4.920;2024-03-08T04:34:38;21.15;;;17.98;;
17369;SDS011;8802;52.402;4.920;2024-03-08T04:37:06;22.02;;;19.65;;
17369;SDS011;8802;52.402;4.920;2024-03-08T04:39:36;21.60;;;18.38;;
17369;SDS011;8802;52.402;4.920;2024-03-08T04:42:03;22.05;;;18.83;;
17369;SDS011;8802;52.402;4.920;2024-03-08T04:44:35;20.20;;;18.00;;
17369;SDS011;8802;52.402;4.920;2024-03-08T04:47:02;24.00;;;17.88;;
17369;SDS011;8802;52.402;4.920;2024-03-08T04:49:31;20.42;;;18.27;;
17369;SDS011;8802;52.402;4.920;2024-03-08T04:51:59;21.80;;;19.38;;
17369;SDS011;8802;52.402;4.920;2024-03-08T04:54:29;24.02;;;19.88;;
17369;SDS011;8802;52.402;4.920;2024-03-08T04:56:56;24.15;;;20.77;;
17369;SDS011;8802;52.402;4.920;2024-03-08T04:59:25;25.17;;;20.52;;
17369;SDS011;8802;52.402;4.920;2024-03-08T05:01:52;24.05;;;19.60;;
17369;SDS011;8802;52.402;4.920;2024-03-08T05:04:19;23.40;;;20.90;;
17369;SDS011;8802;52.402;4.920;2024-03-08T05:06:46;23.42;;;20.40;;
17369;SDS011;8802;52.402;4.920;2024-03-08T05:09:13;23.05;;;20.60;;
17369;SDS011;8802;52.402;4.920;2024-03-08T05:11:42;22.30;;;19.50;;
17369;SDS011;8802;52.402;4.920;2024-03-08T05:14:10;22.80;;;19.25;;
17369;SDS011;8802;52.402;4.920;2024-03-08T05:16:40;24.17;;;21.58;;
17369;SDS011;8802;52.402;4.920;2024-03-08T05:19:07;20.98;;;18.77;;
17369;SDS011;8802;52.402;4.920;2024-03-08T05:21:34;22.30;;;19.63;;
17369;SDS011;8802;52.402;4.920;2024-03-08T05:24:00;23.35;;;19.60;;
17369;SDS011;8802;52.402;4.920;2024-03-08T05:26:27;26.38;;;22.30;;
17369;SDS011;8802;52.402;4.920;2024-03-08T05:28:56;22.70;;;20.30;;
17369;SDS011;8802;52.402;4.920;2024-03-08T05:31:23;22.77;;;18.55;;
17369;SDS011;8802;52.402;4.920;2024-03-08T05:33:50;23.73;;;21.17;;
17369;SDS011;8802;52.402;4.920;2024-03-08T05:36:20;22.58;;;20.17;;
17369;SDS011;8802;52.402;4.920;2024-03-08T05:38:47;23.50;;;20.60;;
17369;SDS011;8802;52.402;4.920;2024-03-08T05:41:15;23.27;;;20.63;;
17369;SDS011;8802;52.402;4.920;2024-03-08T05:43:42;23.95;;;20.65;;
17369;SDS011;8802;52.402;4.920;2024-03-08T05:46:11;21.02;;;18.10;;
17369;SDS011;8802;52.402;4.920;2024-03-08T05:48:43;21.52;;;18.33;;
17369;SDS011;8802;52.402;4.920;2024-03-08T05:51:10;22.77;;;20.33;;
17369;SDS011;8802;52.402;4.920;2024-03-08T05:53:37;22.70;;;19.98;;
17369;SDS011;8802;52.402;4.920;2024-03-08T05:56:04;24.08;;;19.80;;
17369;SDS011;8802;52.402;4.920;2024-03-08T05:58:31;24.50;;;20.90;;
17369;SDS011;8802;52.402;4.920;2024-03-08T06:00:58;24.05;;;21.55;;
17369;SDS011;8802;52.402;4.920;2024-03-08T06:03:27;24.65;;;21.02;;
17369;SDS011;8802;52.402;4.920;2024-03-08T06:05:53;23.63;;;21.10;;
17369;SDS011;8802;52.402;4.920;2024-03-08T06:08:21;23.15;;;20.52;;
17369;SDS011;8802;52.402;4.920;2024-03-08T06:10:48;23.45;;;20.48;;
17369;SDS011;8802;52.402;4.920;2024-03-08T06:13:17;24.52;;;20.33;;
17369;SDS011;8802;52.402;4.920;2024-03-08T06:15:44;23.73;;;19.75;;
17369;SDS011;8802;52.402;4.920;2024-03-08T06:18:11;22.67;;;18.90;;
17369;SDS011;8802;52.402;4.920;2024-03-08T06:20:40;24.08;;;20.80;;
17369;SDS011;8802;52.402;4.920;2024-03-08T06:23:08;23.70;;;18.90;;
17369;SDS011;8802;52.402;4.920;2024-03-08T06:25:35;21.38;;;18.58;;
17369;SDS011;8802;52.402;4.920;2024-03-08T06:28:02;23.50;;;20.85;;
17369;SDS011;8802;52.402;4.920;2024-03-08T06:30:30;23.70;;;21.10;;
17369;SDS011;8802;52.402;4.920;2024-03-08T06:32:57;24.58;;;20.90;;
17369;SDS011;8802;52.402;4.920;2024-03-08T06:35:24;23.67;;;19.70;;
17369;SDS011;8802;52.402;4.920;2024-03-08T06:37:52;24.48;;;21.30;;
17369;SDS011;8802;52.402;4.920;2024-03-08T06:40:19;22.85;;;20.08;;
17369;SDS011;8802;52.402;4.920;2024-03-08T06:42:46;24.73;;;21.55;;
17369;SDS011;8802;52.402;4.920;2024-03-08T06:45:13;22.77;;;19.80;;
17369;SDS011;8802;52.402;4.920;2024-03-08T06:47:44;24.80;;;20.08;;
17369;SDS011;8802;52.402;4.920;2024-03-08T06:50:11;25.17;;;21.05;;
17369;SDS011;8802;52.402;4.920;2024-03-08T06:52:40;21.45;;;18.70;;
17369;SDS011;8802;52.402;4.920;2024-03-08T06:55:09;23.58;;;20.83;;
17369;SDS011;8802;52.402;4.920;2024-03-08T06:57:37;23.23;;;20.58;;
17369;SDS011;8802;52.402;4.920;2024-03-08T07:00:06;24.73;;;22.02;;
17369;SDS011;8802;52.402;4.920;2024-03-08T07:02:34;21.33;;;18.73;;
17369;SDS011;8802;52.402;4.920;2024-03-08T07:05:01;22.77;;;20.30;;
17369;SDS011;8802;52.402;4.920;2024-03-08T07:07:29;25.63;;;21.92;;
17369;SDS011;8802;52.402;4.920;2024-03-08T07:09:57;24.10;;;21.38;;
17369;SDS011;8802;52.402;4.920;2024-03-08T07:12:25;22.73;;;20.30;;
17369;SDS011;8802;52.402;4.920;2024-03-08T07:14:52;22.80;;;20.48;;
17369;SDS011;8802;52.402;4.920;2024-03-08T07:17:19;24.50;;;21.77;;
17369;SDS011;8802;52.402;4.920;2024-03-08T07:19:47;29.38;;;22.88;;
17369;SDS011;8802;52.402;4.920;2024-03-08T07:22:14;25.35;;;21.48;;
17369;SDS011;8802;52.402;4.920;2024-03-08T07:24:42;26.20;;;22.70;;
17369;SDS011;8802;52.402;4.920;2024-03-08T07:27:37;23.25;;;20.17;;
17369;SDS011;8802;52.402;4.920;2024-03-08T07:30:04;22.50;;;19.33;;
17369;SDS011;8802;52.402;4.920;2024-03-08T07:32:35;22.67;;;19.77;;
17369;SDS011;8802;52.402;4.920;2024-03-08T07:35:02;23.55;;;20.10;;
17369;SDS011;8802;52.402;4.920;2024-03-08T07:37:30;24.70;;;21.98;;
17369;SDS011;8802;52.402;4.920;2024-03-08T07:39:57;27.52;;;23.30;;
17369;SDS011;8802;52.402;4.920;2024-03-08T07:42:24;25.60;;;22.90;;
17369;SDS011;8802;52.402;4.920;2024-03-08T07:44:52;24.13;;;21.55;;
17369;SDS011;8802;52.402;4.920;2024-03-08T07:47:19;25.90;;;23.08;;
17369;SDS011;8802;52.402;4.920;2024-03-08T07:49:46;26.88;;;23.02;;
17369;SDS011;8802;52.402;4.920;2024-03-08T07:52:14;26.33;;;23.48;;
17369;SDS011;8802;52.402;4.920;2024-03-08T07:54:43;25.42;;;22.73;;
17369;SDS011;8802;52.402;4.920;2024-03-08T07:57:09;26.45;;;22.80;;
17369;SDS011;8802;52.402;4.920;2024-03-08T07:59:36;30.83;;;21.67;;
17369;SDS011;8802;52.402;4.920;2024-03-08T08:02:05;26.33;;;23.27;;
17369;SDS011;8802;52.402;4.920;2024-03-08T08:04:32;26.98;;;24.08;;
17369;SDS011;8802;52.402;4.920;2024-03-08T08:06:59;26.20;;;23.60;;
17369;SDS011;8802;52.402;4.920;2024-03-08T08:09:26;24.17;;;21.50;;
17369;SDS011;8802;52.402;4.920;2024-03-08T08:11:59;26.00;;;23.23;;
17369;SDS011;8802;52.402;4.920;2024-03-08T08:14:27;25.63;;;21.95;;
17369;SDS011;8802;52.402;4.920;2024-03-08T08:16:54;25.75;;;22.95;;
17369;SDS011;8802;52.402;4.920;2024-03-08T08:19:24;27.27;;;24.17;;
17369;SDS011;8802;52.402;4.920;2024-03-08T08:21:52;25.17;;;22.52;;
17369;SDS011;8802;52.402;4.920;2024-03-08T08:24:19;26.92;;;24.10;;
17369;SDS011;8802;52.402;4.920;2024-03-08T08:26:47;27.60;;;24.80;;
17369;SDS011;8802;52.402;4.920;2024-03-08T08:29:14;26.95;;;23.38;;
17369;SDS011;8802;52.402;4.920;2024-03-08T08:31:41;26.80;;;23.08;;
17369;SDS011;8802;52.402;4.920;2024-03-08T08:34:08;25.88;;;23.20;;
17369;SDS011;8802;52.402;4.920;2024-03-08T08:36:38;25.98;;;23.27;;
17369;SDS011;8802;52.402;4.920;2024-03-08T08:39:05;28.25;;;24.48;;
17369;SDS011;8802;52.402;4.920;2024-03-08T08:41:37;27.20;;;23.13;;
17369;SDS011;8802;52.402;4.920;2024-03-08T08:44:06;26.35;;;23.35;;
17369;SDS011;8802;52.402;4.920;2024-03-08T08:46:35;28.67;;;25.65;;
17369;SDS011;8802;52.402;4.920;2024-03-08T08:49:03;27.10;;;24.30;;
17369;SDS011;8802;52.402;4.920;2024-03-08T08:51:30;27.33;;;24.50;;
17369;SDS011;8802;52.402;4.920;2024-03-08T08:54:00;26.30;;;23.48;;
17369;SDS011;8802;52.402;4.920;2024-03-08T08:56:27;29.10;;;25.30;;
17369;SDS011;8802;52.402;4.920;2024-03-08T08:58:54;29.20;;;25.42;;
17369;SDS011;8802;52.402;4.920;2024-03-08T09:01:22;26.35;;;23.38;;
17369;SDS011;8802;52.402;4.920;2024-03-08T09:03:49;26.92;;;24.15;;
17369;SDS011;8802;52.402;4.920;2024-03-08T09:06:17;27.35;;;24.45;;
17369;SDS011;8802;52.402;4.920;2024-03-08T09:08:44;27.83;;;24.73;;
17369;SDS011;8802;52.402;4.920;2024-03-08T09:11:12;27.80;;;24.73;;
17369;SDS011;8802;52.402;4.920;2024-03-08T09:13:40;27.52;;;24.38;;
17369;SDS011;8802;52.402;4.920;2024-03-08T09:16:07;26.80;;;23.92;;
17369;SDS011;8802;52.402;4.920;2024-03-08T09:18:35;28.77;;;25.30;;
17369;SDS011;8802;52.402;4.920;2024-03-08T09:21:03;25.67;;;22.92;;
17369;SDS011;8802;52.402;4.920;2024-03-08T09:23:34;27.48;;;24.73;;
17369;SDS011;8802;52.402;4.920;2024-03-08T09:26:01;26.92;;;24.05;;
17369;SDS011;8802;52.402;4.920;2024-03-08T09:28:30;29.90;;;24.08;;
17369;SDS011;8802;52.402;4.920;2024-03-08T09:30:57;27.52;;;24.55;;
17369;SDS011;8802;52.402;4.920;2024-03-08T09:33:26;28.98;;;25.88;;
17369;SDS011;8802;52.402;4.920;2024-03-08T09:35:54;27.45;;;24.55;;
17369;SDS011;8802;52.402;4.920;2024-03-08T09:38:22;27.92;;;24.10;;
17369;SDS011;8802;52.402;4.920;2024-03-08T09:40:50;27.58;;;24.67;;
17369;SDS011;8802;52.402;4.920;2024-03-08T09:43:18;27.77;;;23.75;;
17369;SDS011;8802;52.402;4.920;2024-03-08T09:45:47;27.67;;;24.80;;
17369;SDS011;8802;52.402;4.920;2024-03-08T09:48:16;28.05;;;25.33;;
17369;SDS011;8802;52.402;4.920;2024-03-08T09:50:45;26.58;;;23.88;;
17369;SDS011;8802;52.402;4.920;2024-03-08T09:53:13;27.23;;;24.48;;
17369;SDS011;8802;52.402;4.920;2024-03-08T09:55:40;27.13;;;24.33;;
17369;SDS011;8802;52.402;4.920;2024-03-08T09:58:11;28.02;;;25.25;;
17369;SDS011;8802;52.402;4.920;2024-03-08T10:01:03;26.70;;;23.88;;
17369;SDS011;8802;52.402;4.920;2024-03-08T10:03:32;27.65;;;24.88;;
17369;SDS011;8802;52.402;4.920;2024-03-08T10:05:59;28.88;;;24.75;;
17369;SDS011;8802;52.402;4.920;2024-03-08T10:08:26;26.92;;;24.13;;
17369;SDS011;8802;52.402;4.920;2024-03-08T10:10:55;29.02;;;25.95;;
17369;SDS011;8802;52.402;4.920;2024-03-08T10:13:23;29.02;;;25.92;;
17369;SDS011;8802;52.402;4.920;2024-03-08T10:15:52;28.65;;;25.52;;
17369;SDS011;8802;52.402;4.920;2024-03-08T10:18:20;27.88;;;24.95;;
17369;SDS011;8802;52.402;4.920;2024-03-08T10:21:01;27.50;;;24.83;;
17369;SDS011;8802;52.402;4.920;2024-03-08T10:23:30;24.63;;;22.17;;
17369;SDS011;8802;52.402;4.920;2024-03-08T10:25:59;27.08;;;23.45;;
17369;SDS011;8802;52.402;4.920;2024-03-08T10:28:36;25.67;;;23.02;;
17369;SDS011;8802;52.402;4.920;2024-03-08T10:31:03;27.52;;;24.70;;
17369;SDS011;8802;52.402;4.920;2024-03-08T10:33:32;26.00;;;23.27;;
17369;SDS011;8802;52.402;4.920;2024-03-08T10:35:59;25.05;;;22.42;;
17369;SDS011;8802;52.402;4.920;2024-03-08T10:38:28;28.00;;;23.95;;
17369;SDS011;8802;52.402;4.920;2024-03-08T10:40:59;26.48;;;23.75;;
17369;SDS011;8802;52.402;4.920;2024-03-08T10:43:28;26.80;;;23.92;;
17369;SDS011;8802;52.402;4.920;2024-03-08T10:46:05;27.13;;;24.33;;
17369;SDS011;8802;52.402;4.920;2024-03-08T10:48:44;25.80;;;23.02;;
17369;SDS011;8802;52.402;4.920;2024-03-08T10:51:15;26.58;;;23.90;;
17369;SDS011;8802;52.402;4.920;2024-03-08T10:53:42;26.95;;;24.08;;
17369;SDS011;8802;52.402;4.920;2024-03-08T10:56:12;27.25;;;23.77;;
17369;SDS011;8802;52.402;4.920;2024-03-08T10:58:39;26.05;;;23.35;;
17369;SDS011;8802;52.402;4.920;2024-03-08T11:01:09;28.38;;;25.55;;
17369;SDS011;8802;52.402;4.920;2024-03-08T11:03:47;25.77;;;23.20;;
17369;SDS011;8802;52.402;4.920;2024-03-08T11:06:18;24.60;;;22.08;;
17369;SDS011;8802;52.402;4.920;2024-03-08T11:08:49;25.60;;;22.98;;
17369;SDS011;8802;52.402;4.920;2024-03-08T11:11:26;24.90;;;22.40;;
17369;SDS011;8802;52.402;4.920;2024-03-08T11:13:55;26.33;;;23.45;;
17369;SDS011;8802;52.402;4.920;2024-03-08T11:21:57;28.55;;;25.73;;
17369;SDS011;8802;52.402;4.920;2024-03-08T11:24:24;25.45;;;22.67;;
17369;SDS011;8802;52.402;4.920;2024-03-08T11:26:54;25.35;;;22.85;;
17369;SDS011;8802;52.402;4.920;2024-03-08T11:29:37;27.23;;;24.48;;
17369;SDS011;8802;52.402;4.920;2024-03-08T11:32:07;26.48;;;23.67;;
17369;SDS011;8802;52.402;4.920;2024-03-08T11:34:37;26.15;;;23.48;;
17369;SDS011;8802;52.402;4.920;2024-03-08T11:37:10;25.63;;;23.13;;
17369;SDS011;8802;52.402;4.920;2024-03-08T11:39:39;25.38;;;22.77;;
17369;SDS011;8802;52.402;4.920;2024-03-08T11:42:12;25.50;;;22.88;;
17369;SDS011;8802;52.402;4.920;2024-03-08T11:44:41;25.75;;;23.10;;
17369;SDS011;8802;52.402;4.920;2024-03-08T11:47:09;26.35;;;23.65;;
17369;SDS011;8802;52.402;4.920;2024-03-08T11:49:38;25.83;;;23.33;;
17369;SDS011;8802;52.402;4.920;2024-03-08T11:52:10;25.52;;;22.92;;
17369;SDS011;8802;52.402;4.920;2024-03-08T11:54:38;25.92;;;23.02;;
17369;SDS011;8802;52.402;4.920;2024-03-08T11:57:05;26.67;;;24.05;;
17369;SDS011;8802;52.402;4.920;2024-03-08T11:59:35;27.23;;;24.33;;
17369;SDS011;8802;52.402;4.920;2024-03-08T12:02:02;25.95;;;23.40;;
17369;SDS011;8802;52.402;4.920;2024-03-08T12:04:31;25.65;;;23.17;;
17369;SDS011;8802;52.402;4.920;2024-03-08T12:07:03;26.65;;;23.80;;
17369;SDS011;8802;52.402;4.920;2024-03-08T12:09:34;28.08;;;23.55;;
17369;SDS011;8802;52.402;4.920;2024-03-08T12:12:02;25.42;;;22.83;;
17369;SDS011;8802;52.402;4.920;2024-03-08T12:14:29;25.50;;;23.08;;
17369;SDS011;8802;52.402;4.920;2024-03-08T12:16:57;24.58;;;22.27;;
17369;SDS011;8802;52.402;4.920;2024-03-08T12:19:26;26.17;;;23.58;;
17369;SDS011;8802;52.402;4.920;2024-03-08T12:21:53;26.85;;;24.25;;
17369;SDS011;8802;52.402;4.920;2024-03-08T12:24:22;26.33;;;23.63;;
17369;SDS011;8802;52.402;4.920;2024-03-08T12:26:49;26.88;;;24.05;;
17369;SDS011;8802;52.402;4.920;2024-03-08T12:29:20;26.02;;;23.42;;
17369;SDS011;8802;52.402;4.920;2024-03-08T12:31:53;27.55;;;24.52;;
17369;SDS011;8802;52.402;4.920;2024-03-08T12:34:20;25.52;;;23.13;;
17369;SDS011;8802;52.402;4.920;2024-03-08T12:36:48;25.73;;;23.30;;
17369;SDS011;8802;52.402;4.920;2024-03-08T12:39:17;25.00;;;22.23;;
17369;SDS011;8802;52.402;4.920;2024-03-08T12:41:49;26.60;;;24.00;;
17369;SDS011;8802;52.402;4.920;2024-03-08T12:44:16;26.27;;;23.60;;
17369;SDS011;8802;52.402;4.920;2024-03-08T12:46:44;25.13;;;22.73;;
17369;SDS011;8802;52.402;4.920;2024-03-08T12:49:11;26.90;;;24.17;;
17369;SDS011;8802;52.402;4.920;2024-03-08T12:51:38;25.27;;;22.70;;
17369;SDS011;8802;52.402;4.920;2024-03-08T12:54:06;25.77;;;23.17;;
17369;SDS011;8802;52.402;4.920;2024-03-08T12:56:34;28.42;;;24.23;;
17369;SDS011;8802;52.402;4.920;2024-03-08T12:59:04;23.55;;;21.05;;
17369;SDS011;8802;52.402;4.920;2024-03-08T13:01:32;25.48;;;22.83;;
17369;SDS011;8802;52.402;4.920;2024-03-08T13:03:59;23.75;;;21.35;;
17369;SDS011;8802;52.402;4.920;2024-03-08T13:06:26;24.30;;;21.65;;
17369;SDS011;8802;52.402;4.920;2024-03-08T13:08:54;24.67;;;22.17;;
17369;SDS011;8802;52.402;4.920;2024-03-08T13:11:21;22.35;;;19.95;;
17369;SDS011;8802;52.402;4.920;2024-03-08T13:13:49;21.95;;;19.58;;
17369;SDS011;8802;52.402;4.920;2024-03-08T13:16:19;22.35;;;20.15;;
17369;SDS011;8802;52.402;4.920;2024-03-08T13:18:46;22.48;;;20.27;;
17369;SDS011;8802;52.402;4.920;2024-03-08T13:21:14;24.15;;;19.80;;
17369;SDS011;8802;52.402;4.920;2024-03-08T13:23:44;22.80;;;20.52;;
17369;SDS011;8802;52.402;4.920;2024-03-08T13:26:14;22.73;;;19.45;;
17369;SDS011;8802;52.402;4.920;2024-03-08T13:28:41;22.55;;;19.63;;
17369;SDS011;8802;52.402;4.920;2024-03-08T13:31:09;22.48;;;20.17;;
17369;SDS011;8802;52.402;4.920;2024-03-08T13:33:37;22.58;;;20.25;;
17369;SDS011;8802;52.402;4.920;2024-03-08T13:36:06;21.58;;;19.30;;
17369;SDS011;8802;52.402;4.920;2024-03-08T13:38:40;22.52;;;19.95;;
17369;SDS011;8802;52.402;4.920;2024-03-08T13:41:08;22.92;;;20.48;;
17369;SDS011;8802;52.402;4.920;2024-03-08T13:43:35;22.67;;;20.33;;
17369;SDS011;8802;52.402;4.920;2024-03-08T13:46:02;21.40;;;19.20;;
17369;SDS011;8802;52.402;4.920;2024-03-08T13:48:29;19.75;;;17.77;;
17369;SDS011;8802;52.402;4.920;2024-03-08T13:50:58;21.83;;;19.55;;
17369;SDS011;8802;52.402;4.920;2024-03-08T13:53:27;19.88;;;17.75;;
17369;SDS011;8802;52.402;4.920;2024-03-08T13:55:54;21.00;;;18.08;;
17369;SDS011;8802;52.402;4.920;2024-03-08T13:58:21;24.33;;;21.67;;
17369;SDS011;8802;52.402;4.920;2024-03-08T14:00:49;21.80;;;19.63;;
17369;SDS011;8802;52.402;4.920;2024-03-08T14:03:16;20.67;;;18.48;;
17369;SDS011;8802;52.402;4.920;2024-03-08T14:05:43;19.75;;;17.83;;
17369;SDS011;8802;52.402;4.920;2024-03-08T14:08:13;18.63;;;16.70;;
17369;SDS011;8802;52.402;4.920;2024-03-08T14:10:41;18.92;;;17.15;;
17369;SDS011;8802;52.402;4.920;2024-03-08T14:13:08;18.00;;;16.30;;
17369;SDS011;8802;52.402;4.920;2024-03-08T14:15:36;19.73;;;17.83;;
17369;SDS011;8802;52.402;4.920;2024-03-08T14:18:07;19.10;;;17.10;;
17369;SDS011;8802;52.402;4.920;2024-03-08T14:20:34;18.45;;;16.65;;
17369;SDS011;8802;52.402;4.920;2024-03-08T14:23:01;20.15;;;17.08;;
17369;SDS011;8802;52.402;4.920;2024-03-08T14:25:32;18.77;;;16.88;;
17369;SDS011;8802;52.402;4.920;2024-03-08T14:27:59;18.23;;;16.30;;
17369;SDS011;8802;52.402;4.920;2024-03-08T14:30:29;19.17;;;17.13;;
17369;SDS011;8802;52.402;4.920;2024-03-08T14:33:00;19.23;;;17.15;;
17369;SDS011;8802;52.402;4.920;2024-03-08T14:35:27;18.45;;;16.67;;
17369;SDS011;8802;52.402;4.920;2024-03-08T14:37:55;19.58;;;17.65;;
17369;SDS011;8802;52.402;4.920;2024-03-08T14:40:23;18.83;;;16.90;;
17369;SDS011;8802;52.402;4.920;2024-03-08T14:42:52;18.70;;;16.73;;
17369;SDS011;8802;52.402;4.920;2024-03-08T14:45:20;19.27;;;17.30;;